Stations météo

réclame
Mon MeteoGroup
Chatillon/Seine, France (7276): Température de l'air & dewpoint: 13.06.2019 07:00:00 - 19.06.2019 07:00:00 (CEST)Chatillon/Seine, France (7276): Vitesse du vent & gusts: 13.06.2019 07:00:00 - 19.06.2019 07:00:00 (CEST)Chatillon/Seine, France (7276): Direction du vent: 13.06.2019 07:00:00 - 19.06.2019 07:00:00 (CEST)Chatillon/Seine, France (7276): Ensoleillement: 13.06.2019 07:00:00 - 19.06.2019 07:00:00 (CEST)Chatillon/Seine, France (7276): Quantités de précipitations: 13.06.2019 07:00:00 - 19.06.2019 07:00:00 (CEST)
Date & Time tt [°C] td [°C] ff [km/h] ff [knt] fx [km/h] fx [knt] dd sd [min] rr [mm]
19.06.2019 07:00:00 - - - - - - - - -
19.06.2019 06:00:00 17,6 12,5 15 8 24 13 S 0 0,2
19.06.2019 05:00:00 18,0 12,4 15 8 22 12 S 0 0,0
19.06.2019 04:00:00 17,6 12,1 8 4 18 10 S 0 0,0
19.06.2019 03:00:00 16,7 12,2 11 6 18 10 SSE 0 0,0
19.06.2019 02:00:00 17,1 12,6 8 4 16 9 SSE 0 -
19.06.2019 01:00:00 16,0 13,3 11 6 15 8 SE 0 0,0
19.06.2019 00:00:00 17,4 13,9 11 6 18 10 SE 0 0,0
18.06.2019 23:00:00 19,2 15,1 11 6 16 9 SE 0 0,0
18.06.2019 22:00:00 21,4 15,7 8 4 18 10 SE 12 0,0
18.06.2019 21:00:00 25,2 16,3 11 6 15 8 SE 36 0,0
18.06.2019 20:00:00 26,5 16,1 9 5 15 8 SE 0 -
18.06.2019 19:00:00 28,0 13,9 11 6 24 13 SSE 12 0,0
18.06.2019 18:00:00 28,9 13,2 13 7 24 13 S 42 0,0
18.06.2019 17:00:00 30,2 15,9 13 7 22 12 ESE 36 0,0
18.06.2019 16:00:00 29,9 14,8 11 6 24 13 SE 24 0,0
18.06.2019 15:00:00 29,2 14,6 13 7 26 14 S 54 0,0
18.06.2019 14:00:00 29,3 15,1 11 6 26 14 SSE 30 -
18.06.2019 13:00:00 29,5 15,2 11 6 21 11 SE 42 0,0
18.06.2019 12:00:00 28,1 14,0 8 4 22 12 S 60 0,0
18.06.2019 11:00:00 27,4 16,1 5 3 15 8 E 54 0,0
18.06.2019 10:00:00 23,4 16,2 4 2 8 4 ENE 60 0,0
18.06.2019 09:00:00 18,3 15,4 4 2 8 4 NNE 36 0,0
18.06.2019 08:00:00 14,8 14,0 0 0 4 2 N 48 -
18.06.2019 07:00:00 11,7 11,4 0 0 4 2 N 48 0,0
18.06.2019 06:00:00 9,7 9,2 0 0 0 0 N 0 0,0
18.06.2019 05:00:00 10,0 9,5 0 0 5 3 N 0 0,0
18.06.2019 04:00:00 10,5 9,9 4 2 5 3 SSE 0 0,0
18.06.2019 03:00:00 10,6 9,8 0 0 5 3 N 0 0,0
18.06.2019 02:00:00 11,3 10,0 2 1 8 4 SE 0 -
18.06.2019 01:00:00 12,6 11,0 4 2 4 2 SE 0 0,0
18.06.2019 00:00:00 14,2 12,9 0 0 5 3 N 0 0,0
17.06.2019 23:00:00 16,1 12,5 4 2 5 3 SSE 0 0,0
17.06.2019 22:00:00 19,2 13,8 2 1 5 3 NW 12 0,0
17.06.2019 21:00:00 22,5 14,1 4 2 11 6 E 36 0,0
17.06.2019 20:00:00 24,7 11,6 8 4 16 9 NNE 36 -
17.06.2019 19:00:00 26,1 11,1 8 4 15 8 ENE 54 0,0
17.06.2019 18:00:00 26,4 10,9 9 5 21 11 NE 60 0,0
17.06.2019 17:00:00 26,4 11,3 9 5 21 11 NE 60 0,0
17.06.2019 16:00:00 27,1 10,7 8 4 21 11 ENE 54 0,0
17.06.2019 15:00:00 26,9 12,2 8 4 22 12 NE 54 0,0
17.06.2019 14:00:00 25,7 11,8 9 5 24 13 NNE 48 -
17.06.2019 13:00:00 25,3 11,8 4 2 22 12 NE 54 0,0
17.06.2019 12:00:00 24,1 12,7 9 5 21 11 N 60 0,0
17.06.2019 11:00:00 22,7 14,0 5 3 11 6 ENE 60 0,0
17.06.2019 10:00:00 20,4 13,1 5 3 13 7 NE 60 0,0
17.06.2019 09:00:00 16,6 13,1 5 3 9 5 N 60 0,0
17.06.2019 08:00:00 12,8 12,2 2 1 4 2 N 60 -
17.06.2019 07:00:00 9,9 9,6 0 0 4 2 N 48 0,0
17.06.2019 06:00:00 6,6 6,2 4 2 8 4 ESE 0 0,0
17.06.2019 05:00:00 7,9 7,5 0 0 4 2 N 0 0,0
17.06.2019 04:00:00 8,4 7,8 0 0 4 2 N 0 0,0
17.06.2019 03:00:00 9,2 8,6 2 1 8 4 SSW 0 0,0
17.06.2019 02:00:00 9,8 9,0 0 0 4 2 N 0 -
17.06.2019 01:00:00 10,1 8,4 4 2 8 4 SE 0 0,0
17.06.2019 00:00:00 12,8 10,5 0 0 5 3 N 0 0,0
16.06.2019 23:00:00 14,1 10,7 4 2 5 3 E 0 0,0
16.06.2019 22:00:00 16,8 11,3 4 2 9 5 NE 0 0,0
16.06.2019 21:00:00 20,2 11,1 8 4 13 7 N 60 0,0
16.06.2019 20:00:00 22,0 9,8 8 4 11 6 N 60 -
16.06.2019 19:00:00 23,7 9,3 4 2 9 5 W 54 0,0
16.06.2019 18:00:00 21,3 12,2 2 1 8 4 E 12 0,0
16.06.2019 17:00:00 22,5 9,3 4 2 9 5 SSW 48 0,0
16.06.2019 16:00:00 22,2 10,3 5 3 13 7 WNW 24 0,0
16.06.2019 15:00:00 21,5 10,3 8 4 16 9 NW 36 0,0
16.06.2019 14:00:00 21,1 10,9 8 4 16 9 W 42 -
16.06.2019 13:00:00 19,4 10,7 5 3 16 9 WNW 24 0,0
16.06.2019 12:00:00 17,9 10,5 9 5 18 10 WSW 24 0,0
16.06.2019 11:00:00 18,4 12,2 8 4 18 10 WSW 42 0,0
16.06.2019 10:00:00 16,4 10,9 9 5 18 10 W 54 0,0
16.06.2019 09:00:00 15,3 11,1 5 3 13 7 W 60 0,0
16.06.2019 08:00:00 12,7 11,3 5 3 11 6 SSW 60 -
16.06.2019 07:00:00 10,7 10,2 5 3 13 7 SSW 48 0,0
16.06.2019 06:00:00 9,4 8,8 8 4 15 8 SSW 0 0,0
16.06.2019 05:00:00 10,0 9,2 8 4 11 6 SW 0 0,0
16.06.2019 04:00:00 11,0 10,1 9 5 13 7 SSW 0 0,0
16.06.2019 03:00:00 11,8 11,0 4 2 8 4 SSW 0 0,0
16.06.2019 02:00:00 11,1 9,8 4 2 11 6 SSW 0 -
16.06.2019 01:00:00 12,1 10,3 5 3 13 7 SW 0 0,0
16.06.2019 00:00:00 11,7 10,1 9 5 13 7 SSW 0 0,0
15.06.2019 23:00:00 12,6 10,1 9 5 11 6 S 0 0,0
15.06.2019 22:00:00 15,2 11,8 8 4 15 8 SSW 6 0,0
15.06.2019 21:00:00 17,3 11,8 9 5 16 9 W 36 0,0
15.06.2019 20:00:00 18,6 12,4 8 4 16 9 W 12 -
15.06.2019 19:00:00 18,2 13,7 5 3 13 7 W 0 0,0
15.06.2019 18:00:00 17,2 13,3 5 3 22 12 W 0 0,0
15.06.2019 17:00:00 17,8 14,3 13 7 29 16 W 0 0,0
15.06.2019 16:00:00 17,9 14,4 9 5 28 15 W 0 0,4
15.06.2019 15:00:00 19,9 12,4 13 7 24 13 SW 0 0,0
15.06.2019 14:00:00 21,3 13,5 9 5 18 10 S 18 -
15.06.2019 13:00:00 20,6 14,0 5 3 21 11 SSW 30 0,0
15.06.2019 12:00:00 18,5 14,6 11 6 21 11 SSW 6 0,0
15.06.2019 11:00:00 17,3 14,6 15 8 21 11 SSW 0 0,0
15.06.2019 10:00:00 17,0 14,5 11 6 18 10 SW 18 0,0
15.06.2019 09:00:00 15,7 14,4 9 5 16 9 SW 0 0,0
15.06.2019 08:00:00 15,0 14,2 8 4 15 8 SW 0 -
15.06.2019 07:00:00 14,3 13,7 9 5 21 11 SSW 0 0,0
15.06.2019 06:00:00 14,0 13,5 11 6 18 10 SSW 0 0,0
15.06.2019 05:00:00 13,9 13,3 8 4 15 8 SSW 0 0,0
15.06.2019 04:00:00 13,8 13,2 8 4 22 12 SW 0 0,0
15.06.2019 03:00:00 14,2 13,9 9 5 18 10 SW 0 0,4
15.06.2019 02:00:00 14,4 14,1 4 2 21 11 WSW 0 -
15.06.2019 01:00:00 14,6 14,1 9 5 16 9 SW 0 6,0
15.06.2019 00:00:00 14,8 14,3 5 3 18 10 WSW 0 1,0
14.06.2019 23:00:00 15,1 14,3 4 2 13 7 ENE 0 0,2
14.06.2019 22:00:00 15,4 14,1 5 3 13 7 NNW 0 0,2
14.06.2019 21:00:00 16,3 15,2 4 2 15 8 WNW 0 0,8
14.06.2019 20:00:00 16,8 15,1 8 4 13 7 S 0 -
14.06.2019 19:00:00 16,9 14,9 2 1 13 7 ENE 0 0,0
14.06.2019 18:00:00 17,0 14,3 9 5 16 9 ESE 0 0,2
14.06.2019 17:00:00 19,3 12,3 5 3 22 12 ESE 0 0,0
14.06.2019 16:00:00 20,4 12,1 11 6 29 16 ESE 0 0,0
14.06.2019 15:00:00 22,8 12,1 18 10 41 22 SE 0 0,0
14.06.2019 14:00:00 23,7 11,1 18 10 28 15 SE 0 -
14.06.2019 13:00:00 24,4 10,7 16 9 34 18 SSE 24 0,0
14.06.2019 12:00:00 23,7 11,1 18 10 31 17 SE 42 0,0
14.06.2019 11:00:00 18,9 10,7 13 7 24 13 ESE 0 0,0
14.06.2019 10:00:00 16,6 11,5 15 8 26 14 ESE 6 0,0
14.06.2019 09:00:00 14,1 12,3 4 2 9 5 SE 6 0,0
14.06.2019 08:00:00 12,2 10,9 2 1 13 7 NW 0 -
14.06.2019 07:00:00 11,1 10,3 5 3 15 8 SSW 0 0,0
14.06.2019 06:00:00 10,3 9,2 5 3 29 16 SSW 0 0,0
14.06.2019 05:00:00 9,4 8,5 5 3 11 6 S 0 0,0
14.06.2019 04:00:00 9,6 8,2 0 0 8 4 N 0 0,0
14.06.2019 03:00:00 10,8 8,7 2 1 11 6 WNW 0 0,0
14.06.2019 02:00:00 11,3 9,2 2 1 9 5 SE 0 -
14.06.2019 01:00:00 12,2 9,6 2 1 13 7 SE 0 0,0
14.06.2019 00:00:00 12,5 9,5 4 2 5 3 ESE 0 0,0
13.06.2019 23:00:00 13,7 9,3 0 0 5 3 N 0 0,0
13.06.2019 22:00:00 15,7 8,9 2 1 8 4 SE 6 0,0
13.06.2019 21:00:00 19,4 9,3 5 3 22 12 SE 30 0,0
13.06.2019 20:00:00 22,9 7,4 16 9 34 18 SSE 54 -
13.06.2019 19:00:00 24,8 7,0 22 12 31 17 SSE 48 0,0
13.06.2019 18:00:00 21,9 6,1 13 7 34 18 S 18 0,0
13.06.2019 17:00:00 23,3 4,3 15 8 34 18 SSW 18 0,0
13.06.2019 16:00:00 22,8 3,3 22 12 41 22 SSW 36 0,0
13.06.2019 15:00:00 22,5 4,5 18 10 42 23 SSW 36 0,0
13.06.2019 14:00:00 21,8 6,1 18 10 31 17 S 30 -
13.06.2019 13:00:00 21,5 7,3 21 11 34 18 SSW 60 0,0
13.06.2019 12:00:00 19,0 7,4 21 11 39 21 SSW 54 0,0
13.06.2019 11:00:00 18,6 7,1 18 10 34 18 SSW 60 0,0
13.06.2019 10:00:00 16,5 8,7 15 8 28 15 SSW 60 0,0
13.06.2019 09:00:00 14,4 10,0 13 7 18 10 S 60 0,0
13.06.2019 08:00:00 12,1 12,1 11 6 16 9 S 60 -
13.06.2019 07:00:00 8,4 8,4 5 3 8 4 SSE 48 0,0

tt = Température de l'air
td = dewpoint
ff = Vitesse du vent
fx = gusts
dd = Direction du vent
sd = Ensoleillement
rr = Quantités de précipitations

stations d'obs. à proximité